Seward, AK

11:57 AM AKDT on April 19, 2015 (GMT -0800)
Seward | | Change Station
CLOSE
Current Station
Airport
Location: Seward,
Elevation: 20 ft
Nearby Weather Stations

Elev 20 ft 60.13 °N, 149.42 °W | Updated 16 minutes ago

Light Rain
Light Rain
42 °F
Feels Like 32 °F
N
28
Wind Variable Wind from South
Gusts 31 mph

Today
High -- | Low -- °F
--% Chance of Precip.
Yesterday
High -- | Low -- °F
Precip. -- in
6:28 AM 9:26 PM
New Moon, 2% visible
Pressure 29.55 in
Visibility 6.0 miles
Clouds Mostly Cloudy 2600 ft
Overcast 3300 ft
Windchill 32 °F
Dew Point 37 °F
Humidity 82%
Rainfall 0.99 in
Snow Depth Not available.
UV 1 out of 12
Pollen Not available.
Air Quality Not available.
Flu Activity Sporadic
SPECI PAWD 191941Z AUTO 17024G27KT 6SM -RA BKN026 OVC033 06/03 A2955 RMK AO2 PK WND 19029/1854 RAE08B19 P0002 T00560028 TSNO

More Conditions Fewer Conditions

Pressure 29.55 in
Visibility 6.0 miles
Clouds Mostly Cloudy 2600 ft
Overcast 3300 ft
Windchill 32 °F
Dew Point 37 °F
Humidity 82%
Rainfall 0.99 in
Snow Depth Not available.
UV 1 out of 12
Pollen Not available.
Air Quality Not available.
Flu Activity Sporadic
SPECI PAWD 191941Z AUTO 17024G27KT 6SM -RA BKN026 OVC033 06/03 A2955 RMK AO2 PK WND 19029/1854 RAE08B19 P0002 T00560028 TSNO

More Conditions Fewer Conditions

10-Day Weather Forecast

Almanac

Astronomy

Apr. 19, 2015 Rise Set
Actual Time
Civil Twilight
Nautical Twilight
Astronomical Twilight
Moon
Length of Visible Light
Length of Day
Tomorrow will be .
, % of the Moon is Illuminated

Today's Extremes

State Highs State Lows

Community

WunderPhotos

Upload Photos

1,814,950 photos uploaded!

WunderBlogs® & News

Nearby

Air Quality

  Air Quality AQ Index Pollutant
Not available.

Snow Depth

Station Depth Elevation

Earthquake Activity

City Distance Mag. Time & Date
Minimum magnitude displayed is 2.5.

Coastal Water Temperatures

Place Temperature

Stations

Nearby Weather Stations

Station Location Temp. Windchill Dew Point Humidity Wind Precip. Elev Updated Type